Time;durP1;ratioP1;P1;durP2;ratioP2;P2;SDS_P1;SDS_P2;PMS_P1;PMS_P2;Temp;Humidity;BMP_temperature;BMP_pressure;BME280_temperature;BME280_humidity;BME280_pressure;Samples;Min_cycle;Max_cycle;Signal;HPM_P1;HPM_P2
2021/05/28 00:02:16;;;;;;;5.40;2.90;;;22.80;46.50;;;;;;5029528;28;20594;-56
2021/05/28 00:04:42;;;;;;;5.18;2.95;;;22.80;46.50;;;;;;5029334;28;20033;-58
2021/05/28 00:07:08;;;;;;;5.38;3.30;;;22.90;46.50;;;;;;5027615;28;20029;-51
2021/05/28 00:09:35;;;;;;;4.70;2.63;;;22.80;46.50;;;;;;5029418;28;20048;-56
2021/05/28 00:12:01;;;;;;;5.07;2.78;;;22.80;46.50;;;;;;5016902;28;20337;-52
2021/05/28 00:14:27;;;;;;;5.00;3.10;;;22.80;46.50;;;;;;5029342;28;20021;-54
2021/05/28 00:16:52;;;;;;;5.13;2.92;;;22.80;46.50;;;;;;5027451;28;20030;-58
2021/05/28 00:19:18;;;;;;;5.20;2.95;;;22.80;46.50;;;;;;5027021;28;20097;-55
2021/05/28 00:21:44;;;;;;;4.57;2.88;;;22.80;46.50;;;;;;5028201;28;20037;-54
2021/05/28 00:24:09;;;;;;;4.50;2.90;;;22.70;46.50;;;;;;5024326;28;20032;-55
2021/05/28 00:26:35;;;;;;;4.43;2.70;;;22.70;46.50;;;;;;5026334;28;20133;-53
2021/05/28 00:29:00;;;;;;;3.90;2.65;;;22.80;46.50;;;;;;5028920;28;20037;-54
2021/05/28 00:31:26;;;;;;;5.30;3.10;;;22.80;46.50;;;;;;5025602;28;20132;-55
2021/05/28 00:33:52;;;;;;;4.50;2.38;;;22.70;46.50;;;;;;5027129;28;20025;-58
2021/05/28 00:36:18;;;;;;;3.83;2.58;;;22.70;46.50;;;;;;5028054;28;20025;-58
2021/05/28 00:38:44;;;;;;;5.18;2.97;;;22.70;46.50;;;;;;5022810;28;20034;-55
2021/05/28 00:41:12;;;;;;;5.38;3.05;;;22.70;46.50;;;;;;5009651;28;20069;-49
2021/05/28 00:43:38;;;;;;;5.00;2.92;;;22.70;46.50;;;;;;5028220;28;20356;-53
2021/05/28 00:46:03;;;;;;;5.53;2.70;;;22.70;46.50;;;;;;5027459;28;20025;-53
2021/05/28 00:48:29;;;;;;;5.00;2.80;;;22.70;47.10;;;;;;5026806;28;20088;-55
2021/05/28 00:50:54;;;;;;;4.28;2.80;;;22.70;46.50;;;;;;5026709;28;20033;-54
2021/05/28 00:53:22;;;;;;;4.57;2.85;;;22.70;46.50;;;;;;5024038;28;20033;-54
2021/05/28 00:55:48;;;;;;;3.63;2.30;;;22.70;46.50;;;;;;5025916;28;20120;-53
2021/05/28 00:58:13;;;;;;;5.97;2.75;;;22.70;46.50;;;;;;5027390;28;20116;-54
2021/05/28 01:00:40;;;;;;;4.53;2.60;;;22.70;47.00;;;;;;5025103;28;20053;-57
2021/05/28 01:03:05;;;;;;;4.50;2.53;;;22.70;46.50;;;;;;5027933;28;20494;-56
2021/05/28 01:05:32;;;;;;;4.10;2.72;;;22.60;46.50;;;;;;5027127;28;20025;-54
2021/05/28 01:07:58;;;;;;;3.78;2.45;;;22.60;46.50;;;;;;5024534;28;20040;-52
2021/05/28 01:10:23;;;;;;;3.95;2.60;;;22.60;46.50;;;;;;5028170;28;20041;-53
2021/05/28 01:12:49;;;;;;;3.70;2.47;;;22.60;46.50;;;;;;5024460;28;20025;-57
2021/05/28 01:15:15;;;;;;;4.70;2.80;;;22.60;46.50;;;;;;5028088;28;20128;-58
2021/05/28 01:17:41;;;;;;;4.43;2.60;;;22.60;47.00;;;;;;5025609;28;20417;-54
2021/05/28 01:20:09;;;;;;;4.60;2.50;;;22.60;46.50;;;;;;5027966;28;20033;-52
2021/05/28 01:22:35;;;;;;;5.15;2.65;;;22.60;46.50;;;;;;5025211;28;20151;-59
2021/05/28 01:25:01;;;;;;;3.53;2.53;;;22.60;46.50;;;;;;5022692;28;20033;-52
2021/05/28 01:27:28;;;;;;;3.80;2.53;;;22.60;46.50;;;;;;5026025;28;20361;-58
2021/05/28 01:29:54;;;;;;;4.22;2.53;;;22.60;46.50;;;;;;5027873;28;20036;-54
2021/05/28 01:32:20;;;;;;;4.25;2.60;;;22.60;46.50;;;;;;5024121;28;20029;-53
2021/05/28 01:34:46;;;;;;;4.68;2.53;;;22.50;46.40;;;;;;5027101;28;20488;-59
2021/05/28 01:37:11;;;;;;;4.00;2.20;;;22.50;46.40;;;;;;5026510;28;20026;-56
2021/05/28 01:39:48;;;;;;;4.53;2.40;;;22.50;46.40;;;;;;5027275;28;20132;-54
2021/05/28 01:42:14;;;;;;;3.78;2.40;;;22.50;46.40;;;;;;5026842;28;20029;-54
2021/05/28 01:44:41;;;;;;;3.92;2.40;;;22.50;46.50;;;;;;5025391;28;20030;-56
2021/05/28 01:47:07;;;;;;;4.15;2.10;;;22.50;46.50;;;;;;5019978;28;20053;-58
2021/05/28 01:49:32;;;;;;;3.30;2.28;;;22.50;46.50;;;;;;5027929;28;20309;-56
2021/05/28 01:51:58;;;;;;;4.00;2.20;;;22.50;46.40;;;;;;5021811;28;20018;-53
2021/05/28 01:54:24;;;;;;;3.08;2.00;;;22.50;46.40;;;;;;5024117;28;20032;-54
2021/05/28 01:56:50;;;;;;;3.60;2.35;;;22.50;46.50;;;;;;5020979;28;20362;-52
2021/05/28 01:59:24;;;;;;;4.13;2.47;;;22.40;46.40;;;;;;5020244;28;20107;-56
2021/05/28 02:01:51;;;;;;;4.05;2.40;;;22.40;46.40;;;;;;5022018;28;20090;-54
2021/05/28 02:04:16;;;;;;;3.60;2.22;;;22.40;46.40;;;;;;5024135;28;20045;-54
2021/05/28 02:06:42;;;;;;;3.25;2.03;;;22.40;46.40;;;;;;5024229;28;20452;-58
2021/05/28 02:09:07;;;;;;;3.67;2.20;;;22.40;46.40;;;;;;5027193;28;20180;-58
2021/05/28 02:11:33;;;;;;;3.50;2.20;;;22.40;46.40;;;;;;5025296;28;20026;-55
2021/05/28 02:13:59;;;;;;;4.35;2.38;;;22.40;46.40;;;;;;5028180;28;20033;-54
2021/05/28 02:16:24;;;;;;;3.92;2.20;;;22.40;46.40;;;;;;5022871;28;20472;-57
2021/05/28 02:18:50;;;;;;;3.85;2.20;;;22.40;46.40;;;;;;5026767;28;20033;-54
2021/05/28 02:21:16;;;;;;;4.15;2.20;;;22.40;46.50;;;;;;5027132;28;20025;-59
2021/05/28 02:23:42;;;;;;;3.70;2.30;;;22.40;46.40;;;;;;5025641;28;20022;-53
2021/05/28 02:26:07;;;;;;;4.90;2.40;;;22.40;46.40;;;;;;5023993;28;20040;-56
2021/05/28 02:28:33;;;;;;;3.63;2.10;;;22.40;46.40;;;;;;5026644;28;20064;-56
2021/05/28 02:30:58;;;;;;;3.72;2.15;;;22.30;46.40;;;;;;5025098;28;20063;-55
2021/05/28 02:33:24;;;;;;;3.67;2.30;;;22.30;46.40;;;;;;5026791;28;20463;-55
2021/05/28 02:35:50;;;;;;;3.95;2.10;;;22.30;46.40;;;;;;5025240;28;20038;-53
2021/05/28 02:38:15;;;;;;;4.32;2.20;;;22.30;46.40;;;;;;5026135;28;20040;-53
2021/05/28 02:40:41;;;;;;;3.17;2.15;;;22.30;46.40;;;;;;5026782;28;20033;-55
2021/05/28 02:43:07;;;;;;;3.20;2.00;;;22.30;46.40;;;;;;5025843;28;20029;-54
2021/05/28 02:45:32;;;;;;;4.03;2.20;;;22.30;46.40;;;;;;5024158;28;20036;-55
2021/05/28 02:47:59;;;;;;;3.35;1.88;;;22.30;47.00;;;;;;5013839;28;20489;-58
2021/05/28 02:50:25;;;;;;;3.55;2.20;;;22.30;46.40;;;;;;5016945;28;20696;-55
2021/05/28 02:52:51;;;;;;;3.42;2.33;;;22.30;46.40;;;;;;5025338;28;20044;-56
2021/05/28 02:55:17;;;;;;;3.60;2.17;;;22.30;46.40;;;;;;5025233;28;20025;-56
2021/05/28 02:57:42;;;;;;;3.30;2.03;;;22.30;46.40;;;;;;5024792;28;20033;-55
2021/05/28 03:00:09;;;;;;;2.97;1.77;;;22.30;46.50;;;;;;5026892;28;20032;-53
2021/05/28 03:02:34;;;;;;;3.83;2.10;;;22.30;46.40;;;;;;5026675;28;20371;-56
2021/05/28 03:05:00;;;;;;;3.63;1.80;;;22.30;46.50;;;;;;5026224;28;20029;-57
2021/05/28 03:07:26;;;;;;;2.80;1.90;;;22.30;46.40;;;;;;5024217;28;20416;-52
2021/05/28 03:09:52;;;;;;;3.38;2.00;;;22.30;46.40;;;;;;5020884;28;20038;-55
2021/05/28 03:12:17;;;;;;;3.35;1.83;;;22.30;46.40;;;;;;5024957;28;20084;-57
2021/05/28 03:14:43;;;;;;;3.35;1.95;;;22.20;46.40;;;;;;5010668;28;20049;-53
2021/05/28 03:17:09;;;;;;;3.05;2.10;;;22.30;46.50;;;;;;5028218;28;20045;-54
2021/05/28 03:19:42;;;;;;;3.30;1.98;;;22.30;46.50;;;;;;5026382;28;20119;-57
2021/05/28 03:24:40;;;;;;;3.30;1.80;;;22.20;46.50;;;;;;5012635;28;20030;-51
2021/05/28 03:27:06;;;;;;;3.90;1.73;;;22.20;46.40;;;;;;5025232;28;20242;-53
2021/05/28 03:29:31;;;;;;;3.08;1.80;;;22.20;46.40;;;;;;5029374;28;20025;-54
2021/05/28 03:31:57;;;;;;;3.10;1.77;;;22.20;46.40;;;;;;5022049;28;20038;-54
2021/05/28 03:34:23;;;;;;;2.95;1.70;;;22.20;46.50;;;;;;5030158;28;20091;-53
2021/05/28 03:36:50;;;;;;;3.30;2.08;;;22.20;46.40;;;;;;5027824;28;20049;-58
2021/05/28 03:39:16;;;;;;;3.67;2.00;;;22.20;46.50;;;;;;5023340;28;20117;-55
2021/05/28 03:41:41;;;;;;;3.20;2.00;;;22.20;46.50;;;;;;5028442;28;20457;-56
2021/05/28 03:44:07;;;;;;;3.30;1.90;;;22.20;46.50;;;;;;5030867;28;20026;-53
2021/05/28 03:46:32;;;;;;;3.00;1.77;;;22.20;46.50;;;;;;5009770;28;20057;-56
2021/05/28 03:48:58;;;;;;;4.03;2.00;;;22.20;46.50;;;;;;5016344;28;20041;-52
2021/05/28 03:51:24;;;;;;;2.92;1.80;;;22.10;46.40;;;;;;5028097;28;20111;-52
2021/05/28 03:53:50;;;;;;;3.40;1.70;;;22.10;46.40;;;;;;5029601;28;20034;-53
2021/05/28 03:56:15;;;;;;;3.15;1.70;;;22.20;46.50;;;;;;5027521;28;20460;-54
2021/05/28 03:58:42;;;;;;;2.78;1.88;;;22.10;46.40;;;;;;5029622;28;20033;-53
2021/05/28 04:01:08;;;;;;;3.25;1.83;;;22.10;46.40;;;;;;5027760;28;20037;-55
2021/05/28 04:03:34;;;;;;;2.35;1.50;;;22.10;46.50;;;;;;5029551;28;20067;-55
2021/05/28 04:05:59;;;;;;;2.83;1.70;;;22.10;46.40;;;;;;5028101;28;20064;-56
2021/05/28 04:08:25;;;;;;;2.97;1.70;;;22.10;46.40;;;;;;5028298;28;20387;-52
2021/05/28 04:10:50;;;;;;;2.72;1.73;;;22.10;46.50;;;;;;5029013;28;20432;-58
2021/05/28 04:13:16;;;;;;;3.10;1.77;;;22.10;46.40;;;;;;5028450;28;20034;-55
2021/05/28 04:15:42;;;;;;;3.40;1.60;;;22.10;46.40;;;;;;5029230;28;20029;-52
2021/05/28 04:18:08;;;;;;;3.97;1.80;;;22.10;46.40;;;;;;5027256;28;20486;-56
2021/05/28 04:20:35;;;;;;;3.20;1.80;;;22.10;46.40;;;;;;5023892;28;20030;-55
2021/05/28 04:23:01;;;;;;;2.90;1.58;;;22.10;46.40;;;;;;5028867;28;20108;-53
2021/05/28 04:25:27;;;;;;;2.92;1.67;;;22.10;46.40;;;;;;5024967;28;20120;-55
2021/05/28 04:27:52;;;;;;;2.22;1.50;;;22.10;46.40;;;;;;5028353;28;20072;-50
2021/05/28 04:30:23;;;;;;;2.60;1.45;;;22.10;46.40;;;;;;5027807;28;20029;-54
2021/05/28 04:32:51;;;;;;;3.13;1.55;;;22.10;46.40;;;;;;5019199;28;20113;-55
2021/05/28 04:35:17;;;;;;;3.00;1.63;;;22.10;46.40;;;;;;5027535;28;20112;-51
2021/05/28 04:37:43;;;;;;;2.40;1.55;;;22.10;46.40;;;;;;5028547;28;20117;-51
2021/05/28 04:40:09;;;;;;;2.88;1.60;;;22.10;46.50;;;;;;5026947;28;20677;-55
2021/05/28 04:42:35;;;;;;;3.10;1.90;;;22.00;46.40;;;;;;5028735;28;20045;-57
2021/05/28 04:45:02;;;;;;;3.13;1.63;;;22.00;46.40;;;;;;5027438;28;20047;-55
2021/05/28 04:47:28;;;;;;;2.78;1.63;;;22.00;46.40;;;;;;5017982;28;20085;-54
2021/05/28 04:49:53;;;;;;;3.10;1.70;;;22.00;46.40;;;;;;5027950;28;20091;-52
2021/05/28 04:52:19;;;;;;;2.55;1.55;;;22.00;46.40;;;;;;5026898;28;20387;-51
2021/05/28 04:54:44;;;;;;;2.38;1.58;;;22.00;46.40;;;;;;5028438;28;20045;-53
2021/05/28 04:57:10;;;;;;;2.35;1.40;;;22.00;46.40;;;;;;5021941;28;20022;-52
2021/05/28 04:59:36;;;;;;;2.70;1.67;;;22.00;46.40;;;;;;5017150;28;20033;-54
2021/05/28 05:02:01;;;;;;;2.33;1.50;;;22.00;46.40;;;;;;5025359;28;20041;-57
2021/05/28 05:04:27;;;;;;;2.50;1.63;;;22.00;46.40;;;;;;5028374;28;20034;-52
2021/05/28 05:06:52;;;;;;;2.45;1.50;;;22.00;46.40;;;;;;5027047;28;20029;-55
2021/05/28 05:09:18;;;;;;;2.60;1.60;;;22.00;46.50;;;;;;5026316;28;20104;-57
2021/05/28 05:11:43;;;;;;;2.33;1.45;;;22.00;46.40;;;;;;5027444;28;20045;-55
2021/05/28 05:14:09;;;;;;;2.50;1.45;;;22.00;46.50;;;;;;5027126;28;20080;-56
2021/05/28 05:16:35;;;;;;;2.38;1.35;;;22.00;46.40;;;;;;5025970;28;20029;-59
2021/05/28 05:19:00;;;;;;;2.50;1.40;;;22.00;46.40;;;;;;5015413;28;20468;-55
2021/05/28 05:21:26;;;;;;;2.40;1.40;;;22.00;46.40;;;;;;5018276;28;20030;-53
2021/05/28 05:23:52;;;;;;;2.40;1.40;;;22.00;46.40;;;;;;5027802;28;20112;-52
2021/05/28 05:26:17;;;;;;;2.17;1.42;;;22.00;46.40;;;;;;5024123;28;20547;-58
2021/05/28 05:28:43;;;;;;;2.95;1.33;;;22.00;46.50;;;;;;5028633;28;20037;-55
2021/05/28 05:31:09;;;;;;;2.80;1.58;;;22.00;46.40;;;;;;5027073;28;20059;-54
2021/05/28 05:33:34;;;;;;;2.58;1.55;;;22.00;46.40;;;;;;5027429;28;20433;-53
2021/05/28 05:36:00;;;;;;;2.83;1.60;;;22.00;46.40;;;;;;5025509;28;20136;-57
2021/05/28 05:38:25;;;;;;;2.13;1.33;;;21.90;46.40;;;;;;5025753;28;20033;-54
2021/05/28 05:40:51;;;;;;;2.60;1.40;;;22.00;46.50;;;;;;5014520;28;20057;-55
2021/05/28 05:43:17;;;;;;;2.30;1.38;;;22.00;46.40;;;;;;5025821;28;20029;-55
2021/05/28 05:45:43;;;;;;;2.25;1.33;;;21.90;46.40;;;;;;5026626;28;20021;-52
2021/05/28 05:48:08;;;;;;;2.42;1.42;;;21.90;46.40;;;;;;5024289;28;20026;-56
2021/05/28 05:50:34;;;;;;;2.20;1.42;;;21.90;46.40;;;;;;5008067;28;20083;-54
2021/05/28 05:53:00;;;;;;;2.20;1.40;;;21.90;46.40;;;;;;5021841;28;20029;-51
2021/05/28 05:55:25;;;;;;;2.28;1.40;;;21.90;46.40;;;;;;5024517;28;20456;-59
2021/05/28 05:57:52;;;;;;;2.45;1.40;;;21.90;46.40;;;;;;5024947;28;20094;-56
2021/05/28 06:00:18;;;;;;;2.45;1.50;;;21.90;46.40;;;;;;5014390;28;20084;-53
2021/05/28 06:02:44;;;;;;;2.42;1.50;;;21.90;46.40;;;;;;5023815;28;20029;-51
2021/05/28 06:05:10;;;;;;;2.40;1.30;;;21.90;46.40;;;;;;5024267;28;20048;-55
2021/05/28 06:07:36;;;;;;;2.08;1.40;;;21.90;46.40;;;;;;5024100;28;20049;-52
2021/05/28 06:10:03;;;;;;;2.85;1.60;;;21.90;46.90;;;;;;5025503;28;20037;-52
2021/05/28 06:12:28;;;;;;;2.25;1.38;;;21.90;46.40;;;;;;5027344;28;20476;-55
2021/05/28 06:14:54;;;;;;;2.05;1.42;;;21.90;46.40;;;;;;5024661;28;20033;-52
2021/05/28 06:17:20;;;;;;;2.42;1.40;;;21.90;46.40;;;;;;5023014;28;20025;-57
2021/05/28 06:19:46;;;;;;;2.45;1.25;;;21.90;46.40;;;;;;5024222;28;20508;-55
2021/05/28 06:22:12;;;;;;;2.08;1.35;;;21.90;46.40;;;;;;5021559;28;20495;-55
2021/05/28 06:24:37;;;;;;;2.90;1.67;;;21.90;46.90;;;;;;5025119;28;20037;-54
2021/05/28 06:27:04;;;;;;;2.33;1.30;;;21.90;46.40;;;;;;5024379;28;20037;-59
2021/05/28 06:29:29;;;;;;;2.40;1.40;;;21.90;46.40;;;;;;5017500;28;20068;-57
2021/05/28 06:31:55;;;;;;;2.65;1.48;;;21.90;46.40;;;;;;5024205;28;20413;-54
2021/05/28 06:34:20;;;;;;;2.60;1.50;;;21.90;47.00;;;;;;5028089;28;20084;-58
2021/05/28 06:36:47;;;;;;;2.30;1.20;;;21.90;46.50;;;;;;5024091;28;20197;-53
2021/05/28 06:39:13;;;;;;;2.10;1.40;;;21.90;46.50;;;;;;5027277;28;20041;-57
2021/05/28 06:41:39;;;;;;;2.50;1.40;;;21.90;46.50;;;;;;5008818;28;20778;-59
2021/05/28 06:44:05;;;;;;;2.55;1.52;;;21.90;46.50;;;;;;5028605;28;20026;-54
2021/05/28 06:46:31;;;;;;;2.88;1.30;;;21.90;46.40;;;;;;5021208;28;20020;-58
2021/05/28 06:48:58;;;;;;;2.20;1.20;;;21.90;46.40;;;;;;5024521;28;20104;-57
2021/05/28 06:51:24;;;;;;;2.90;1.60;;;21.90;46.50;;;;;;5024021;28;20394;-57
2021/05/28 06:53:50;;;;;;;2.55;1.40;;;21.80;46.40;;;;;;5025143;28;20108;-55
2021/05/28 06:56:16;;;;;;;2.58;1.40;;;21.80;46.40;;;;;;5023638;28;20033;-51
2021/05/28 06:58:47;;;;;;;2.03;1.40;;;21.80;46.50;;;;;;5025594;28;20974;-54
2021/05/28 07:01:13;;;;;;;2.38;1.25;;;21.80;46.40;;;;;;5017660;28;20026;-53
2021/05/28 07:03:38;;;;;;;2.15;1.38;;;21.80;46.40;;;;;;5026040;28;20029;-52
2021/05/28 07:06:04;;;;;;;2.15;1.30;;;21.80;46.40;;;;;;5023618;28;20025;-54
2021/05/28 07:08:31;;;;;;;2.60;1.50;;;21.80;46.40;;;;;;5026417;28;20552;-56
2021/05/28 07:10:57;;;;;;;2.25;1.30;;;21.80;46.50;;;;;;5019038;28;20029;-56
2021/05/28 07:13:22;;;;;;;2.30;1.48;;;21.80;46.50;;;;;;5024494;28;20887;-55
2021/05/28 07:15:48;;;;;;;2.10;1.27;;;21.80;46.50;;;;;;5026178;28;20551;-52
2021/05/28 07:18:14;;;;;;;1.98;1.30;;;21.80;46.50;;;;;;5018691;28;20022;-54
2021/05/28 07:20:39;;;;;;;1.98;1.17;;;21.80;46.50;;;;;;5020782;28;20061;-53
2021/05/28 07:23:05;;;;;;;3.08;1.45;;;21.80;46.50;;;;;;5025998;28;20049;-50
2021/05/28 07:25:30;;;;;;;2.00;1.30;;;21.80;46.50;;;;;;5018399;28;20156;-53
2021/05/28 07:27:56;;;;;;;2.10;1.30;;;21.80;46.50;;;;;;5032186;28;20471;-54
2021/05/28 07:30:22;;;;;;;1.90;1.13;;;21.80;46.50;;;;;;5019533;28;20044;-56
2021/05/28 07:32:48;;;;;;;1.95;1.13;;;21.80;46.50;;;;;;5022218;28;20134;-53
2021/05/28 07:35:13;;;;;;;1.95;1.20;;;21.80;46.50;;;;;;5025090;28;20069;-57
2021/05/28 07:37:40;;;;;;;2.10;1.23;;;21.80;46.50;;;;;;5020413;28;20665;-50
2021/05/28 07:40:08;;;;;;;1.98;1.27;;;21.80;47.10;;;;;;5020318;28;20071;-55
2021/05/28 07:42:34;;;;;;;1.98;1.17;;;21.80;46.50;;;;;;5021781;28;20038;-52
2021/05/28 07:44:59;;;;;;;2.30;1.42;;;21.80;46.50;;;;;;5022875;28;20036;-56
2021/05/28 07:47:25;;;;;;;1.95;1.27;;;21.80;46.50;;;;;;5022078;28;20113;-51
2021/05/28 07:49:50;;;;;;;2.10;1.35;;;21.80;46.60;;;;;;5011942;28;20037;-53
2021/05/28 07:52:16;;;;;;;2.22;1.30;;;21.80;46.50;;;;;;5023946;28;20108;-49
2021/05/28 07:54:42;;;;;;;1.95;1.20;;;21.80;46.50;;;;;;5021828;28;20036;-49
2021/05/28 07:57:08;;;;;;;1.85;1.08;;;21.80;46.50;;;;;;5019587;28;20518;-53
2021/05/28 07:59:33;;;;;;;2.22;1.23;;;21.80;46.50;;;;;;5024129;28;20075;-52
2021/05/28 08:01:59;;;;;;;2.05;1.20;;;21.80;46.50;;;;;;5025159;28;20106;-50
2021/05/28 08:04:25;;;;;;;2.70;1.33;;;21.80;46.60;;;;;;5032003;28;20040;-52
2021/05/28 08:06:50;;;;;;;1.83;1.20;;;21.80;46.50;;;;;;5024064;28;20083;-52
2021/05/28 08:09:16;;;;;;;1.98;1.10;;;21.80;46.50;;;;;;5023422;28;20086;-50
2021/05/28 08:11:42;;;;;;;2.08;1.23;;;21.80;46.50;;;;;;5021104;28;20076;-54
2021/05/28 08:14:08;;;;;;;1.88;1.20;;;21.80;46.50;;;;;;5029537;28;20099;-56
2021/05/28 08:16:34;;;;;;;2.03;1.20;;;21.80;46.50;;;;;;5025476;28;20026;-52
2021/05/28 08:19:00;;;;;;;1.83;1.20;;;21.80;46.50;;;;;;5020907;28;20029;-57
2021/05/28 08:21:25;;;;;;;2.30;1.30;;;21.80;46.50;;;;;;5026627;28;20072;-50
2021/05/28 08:23:51;;;;;;;1.50;1.10;;;21.80;46.50;;;;;;5024147;28;20155;-50
2021/05/28 08:26:17;;;;;;;2.30;1.35;;;21.90;46.50;;;;;;5026661;28;20261;-53
2021/05/28 08:28:42;;;;;;;2.00;1.13;;;21.90;46.50;;;;;;5029398;28;20184;-52
2021/05/28 08:31:10;;;;;;;2.03;1.10;;;21.80;46.40;;;;;;5024167;28;20046;-52
2021/05/28 08:33:37;;;;;;;2.03;1.15;;;21.90;46.50;;;;;;5029795;28;20353;-52
2021/05/28 08:36:03;;;;;;;2.10;1.20;;;21.90;46.50;;;;;;5027164;28;20138;-51
2021/05/28 08:38:29;;;;;;;1.65;1.00;;;21.90;46.40;;;;;;5027891;28;20124;-54
2021/05/28 08:40:54;;;;;;;2.40;1.20;;;21.90;46.50;;;;;;5019043;28;20098;-56
2021/05/28 08:43:20;;;;;;;2.13;1.10;;;21.90;46.40;;;;;;5027402;28;20048;-52
2021/05/28 08:45:47;;;;;;;2.05;1.17;;;21.90;46.50;;;;;;5026103;28;20022;-51
2021/05/28 08:48:18;;;;;;;2.38;1.10;;;21.90;46.50;;;;;;5028281;28;20025;-50
2021/05/28 08:50:46;;;;;;;1.63;1.10;;;21.90;46.40;;;;;;5024485;28;20131;-50
2021/05/28 08:53:13;;;;;;;1.45;0.95;;;21.90;46.40;;;;;;5026979;28;20345;-55
2021/05/28 08:55:41;;;;;;;1.60;1.00;;;21.80;46.90;;;;;;5027254;28;20078;-55
2021/05/28 08:58:09;;;;;;;1.73;1.02;;;21.90;46.40;;;;;;5027909;28;20041;-53
2021/05/28 09:00:42;;;;;;;4.22;1.10;;;21.90;46.40;;;;;;5021796;28;20025;-52
2021/05/28 09:03:26;;;;;;;2.25;1.20;;;21.90;46.40;;;;;;5028092;28;20113;-52
2021/05/28 09:05:55;;;;;;;2.35;1.17;;;21.90;46.40;;;;;;5025932;28;20488;-55
2021/05/28 09:08:26;;;;;;;1.60;1.10;;;21.90;46.40;;;;;;5026143;28;20038;-55
2021/05/28 09:10:54;;;;;;;1.75;1.10;;;21.90;46.40;;;;;;5024668;28;20045;-55
2021/05/28 09:13:26;;;;;;;1.60;1.00;;;21.90;46.40;;;;;;5016472;28;20037;-55
2021/05/28 09:16:10;;;;;;;2.25;1.10;;;21.80;46.30;;;;;;5024555;28;20040;-57
2021/05/28 09:18:53;;;;;;;2.13;1.00;;;21.80;46.30;;;;;;5025764;28;20029;-54
2021/05/28 09:21:21;;;;;;;1.92;1.00;;;21.90;46.40;;;;;;5017359;28;20033;-53
2021/05/28 09:23:47;;;;;;;1.80;1.10;;;21.90;46.40;;;;;;5027829;28;20044;-50
2021/05/28 09:26:14;;;;;;;1.30;0.93;;;21.90;46.30;;;;;;5022513;28;20037;-55
2021/05/28 09:28:45;;;;;;;2.22;1.10;;;21.90;46.40;;;;;;5016764;28;20425;-53
2021/05/28 09:31:19;;;;;;;1.98;1.20;;;21.80;46.30;;;;;;5019892;28;20076;-54
2021/05/28 09:33:49;;;;;;;1.73;0.93;;;21.90;46.40;;;;;;5025763;28;20040;-55
2021/05/28 09:36:26;;;;;;;2.20;1.10;;;21.90;46.40;;;;;;5025839;28;20136;-51
2021/05/28 09:38:57;;;;;;;1.67;1.02;;;21.90;46.40;;;;;;5028369;28;20029;-53
2021/05/28 09:41:35;;;;;;;1.55;1.08;;;21.90;46.30;;;;;;5023101;28;20029;-54
2021/05/28 09:44:11;;;;;;;2.30;1.10;;;21.90;46.30;;;;;;5018643;28;20097;-53
2021/05/28 09:46:38;;;;;;;2.63;1.00;;;21.90;46.40;;;;;;5025137;28;20095;-56
2021/05/28 09:49:10;;;;;;;1.45;1.00;;;21.90;46.40;;;;;;5026724;28;20544;-59
2021/05/28 09:51:37;;;;;;;2.33;1.10;;;21.90;46.40;;;;;;5012216;28;20028;-53
2021/05/28 09:54:16;;;;;;;1.88;1.10;;;21.90;46.40;;;;;;5026379;28;20028;-55
2021/05/28 09:56:43;;;;;;;1.52;1.00;;;21.90;47.00;;;;;;5021878;28;20017;-54
2021/05/28 09:59:10;;;;;;;1.92;1.00;;;21.90;46.50;;;;;;5023684;28;20041;-56
2021/05/28 10:01:52;;;;;;;1.55;1.00;;;21.90;46.50;;;;;;5024189;28;20033;-56
2021/05/28 10:04:18;;;;;;;1.90;1.10;;;21.90;46.50;;;;;;5019913;28;20029;-54
2021/05/28 10:06:44;;;;;;;1.75;1.10;;;21.90;46.50;;;;;;5019642;28;20037;-56
2021/05/28 10:09:11;;;;;;;2.42;1.08;;;21.90;46.50;;;;;;5023094;28;20033;-56
2021/05/28 10:11:39;;;;;;;2.80;1.20;;;21.90;46.60;;;;;;5024816;28;20369;-56
2021/05/28 10:14:06;;;;;;;1.45;0.98;;;21.90;46.60;;;;;;5024960;28;20174;-53
2021/05/28 10:16:32;;;;;;;2.50;1.10;;;21.90;46.60;;;;;;5025074;28;20055;-54
2021/05/28 10:18:58;;;;;;;1.77;1.08;;;21.90;46.60;;;;;;5024478;28;20029;-52
2021/05/28 10:21:25;;;;;;;3.13;1.30;;;21.90;46.70;;;;;;5023214;28;20086;-54
2021/05/28 10:23:51;;;;;;;2.78;1.20;;;21.90;46.70;;;;;;5025368;28;20418;-55
2021/05/28 10:26:28;;;;;;;2.13;1.05;;;21.90;46.70;;;;;;5018762;28;20833;-56
2021/05/28 10:28:54;;;;;;;1.80;1.00;;;21.90;46.70;;;;;;5023612;28;20479;-49
2021/05/28 10:31:20;;;;;;;1.95;1.02;;;21.90;46.80;;;;;;5023627;28;20124;-57
2021/05/28 10:33:52;;;;;;;2.72;1.10;;;21.90;46.80;;;;;;5023452;28;20374;-53
2021/05/28 10:36:41;;;;;;;1.83;1.00;;;21.90;46.80;;;;;;5023354;28;20033;-57
2021/05/28 10:39:12;;;;;;;2.22;1.00;;;21.90;46.80;;;;;;5021926;28;20132;-59
2021/05/28 10:41:39;;;;;;;2.35;1.13;;;21.90;46.80;;;;;;5021738;28;20068;-53
2021/05/28 10:44:07;;;;;;;1.55;1.10;;;21.90;46.80;;;;;;5024194;28;20021;-56
2021/05/28 10:46:33;;;;;;;1.95;1.10;;;21.90;46.80;;;;;;5024462;28;20594;-57
2021/05/28 10:48:59;;;;;;;1.90;1.00;;;21.90;46.90;;;;;;5023907;28;20025;-59
2021/05/28 10:51:27;;;;;;;2.20;1.00;;;21.90;46.90;;;;;;5017336;28;20072;-56
2021/05/28 10:53:53;;;;;;;2.57;1.10;;;21.90;46.90;;;;;;5012233;28;20549;-51
2021/05/28 10:56:24;;;;;;;1.98;1.00;;;21.90;46.90;;;;;;5014149;28;20030;-56
2021/05/28 10:58:59;;;;;;;2.03;1.00;;;21.90;47.00;;;;;;5019010;28;20034;-59
2021/05/28 11:01:34;;;;;;;1.73;1.00;;;21.90;47.00;;;;;;5014232;28;20048;-57
2021/05/28 11:04:04;;;;;;;1.73;0.93;;;21.90;46.90;;;;;;5024001;28;20031;-59
2021/05/28 11:06:31;;;;;;;2.80;1.00;;;21.90;47.00;;;;;;5021410;28;20045;-59
2021/05/28 11:09:08;;;;;;;1.50;1.00;;;21.90;46.90;;;;;;5020626;28;20547;-54
2021/05/28 11:11:36;;;;;;;1.98;1.10;;;21.90;46.90;;;;;;5022517;28;20033;-57
2021/05/28 11:14:13;;;;;;;1.38;1.00;;;21.90;46.90;;;;;;5023209;28;20025;-54
2021/05/28 11:16:57;;;;;;;2.08;1.02;;;21.90;46.90;;;;;;5022060;28;20037;-60
2021/05/28 11:19:30;;;;;;;1.98;1.10;;;21.90;46.90;;;;;;5021222;28;20021;-60
2021/05/28 11:22:01;;;;;;;2.03;1.17;;;21.90;46.80;;;;;;5011237;28;20018;-57
2021/05/28 11:24:45;;;;;;;1.30;0.90;;;22.00;46.90;;;;;;5023120;28;20112;-59
2021/05/28 11:27:31;;;;;;;1.48;0.82;;;22.00;46.80;;;;;;5006945;28;20310;-57
2021/05/28 11:30:03;;;;;;;1.88;1.10;;;21.90;46.60;;;;;;5010749;28;20840;-56
2021/05/28 11:32:45;;;;;;;1.45;0.90;;;22.00;46.60;;;;;;5018712;28;20119;-55
2021/05/28 11:35:28;;;;;;;2.03;1.10;;;21.90;46.50;;;;;;5023694;28;20030;-59
2021/05/28 11:38:04;;;;;;;1.63;1.00;;;21.90;46.50;;;;;;5022552;28;20121;-51
2021/05/28 11:40:35;;;;;;;1.17;0.85;;;22.00;46.60;;;;;;5020257;28;20039;-56
2021/05/28 11:43:09;;;;;;;1.83;1.00;;;22.00;46.70;;;;;;5026001;28;20077;-55
2021/05/28 11:45:37;;;;;;;2.17;1.05;;;22.00;46.80;;;;;;5022095;28;20101;-56
2021/05/28 11:48:09;;;;;;;1.42;0.98;;;22.00;46.80;;;;;;5023183;28;20093;-53
2021/05/28 11:50:41;;;;;;;2.45;1.17;;;22.00;46.90;;;;;;5026797;28;20044;-54
2021/05/28 11:53:11;;;;;;;2.60;1.08;;;22.00;46.90;;;;;;5017880;28;20030;-57
2021/05/28 11:55:51;;;;;;;1.50;0.80;;;22.00;46.80;;;;;;5013877;28;20038;-54
2021/05/28 11:58:22;;;;;;;1.33;0.90;;;22.00;46.70;;;;;;5024184;28;20038;-58
2021/05/28 12:00:51;;;;;;;2.13;1.10;;;22.00;46.90;;;;;;5019034;28;20045;-49
2021/05/28 12:03:17;;;;;;;3.97;1.30;;;22.00;46.80;;;;;;5021908;28;20421;-55
2021/05/28 12:05:44;;;;;;;2.20;0.90;;;22.00;46.70;;;;;;5028319;28;20056;-58
2021/05/28 12:08:10;;;;;;;1.98;0.98;;;22.00;46.70;;;;;;5020975;28;20025;-57
2021/05/28 12:10:39;;;;;;;3.25;1.05;;;22.00;46.60;;;;;;5019502;28;20026;-53
2021/05/28 12:13:16;;;;;;;1.65;0.90;;;22.00;46.60;;;;;;5026061;28;20021;-52
2021/05/28 12:15:48;;;;;;;3.17;1.20;;;22.00;46.60;;;;;;5024571;28;20021;-53
2021/05/28 12:18:34;;;;;;;3.13;0.95;;;22.00;46.70;;;;;;5024815;28;20026;-52
2021/05/28 12:21:04;;;;;;;2.88;0.88;;;22.00;46.70;;;;;;5018653;28;20034;-56
2021/05/28 12:23:32;;;;;;;3.08;0.90;;;22.00;46.90;;;;;;5024214;28;20436;-57
2021/05/28 12:26:04;;;;;;;1.75;1.00;;;22.10;47.00;;;;;;5016925;28;20082;-60
2021/05/28 12:28:32;;;;;;;1.77;0.85;;;22.10;47.00;;;;;;5022459;28;20150;-53
2021/05/28 12:31:03;;;;;;;1.70;0.93;;;22.00;46.90;;;;;;5006523;28;20181;-54
2021/05/28 12:33:35;;;;;;;2.35;0.95;;;22.00;47.20;;;;;;5024693;28;20437;-59
2021/05/28 12:36:04;;;;;;;3.95;1.10;;;22.10;47.80;;;;;;5013920;28;20033;-56
2021/05/28 12:38:42;;;;;;;1.83;0.90;;;22.10;48.40;;;;;;5022179;28;20029;-55
2021/05/28 12:41:17;;;;;;;2.80;1.20;;;22.10;48.50;;;;;;5018807;28;20081;-57
2021/05/28 12:43:44;;;;;;;2.97;0.98;;;22.10;48.60;;;;;;5022435;28;20029;-55
2021/05/28 12:46:17;;;;;;;1.70;0.90;;;22.20;48.60;;;;;;5021811;28;20460;-55
2021/05/28 12:48:46;;;;;;;2.35;1.00;;;22.20;48.40;;;;;;5024622;28;20057;-55
2021/05/28 12:51:13;;;;;;;2.97;1.02;;;22.20;48.30;;;;;;5020102;28;20384;-56
2021/05/28 12:53:41;;;;;;;4.25;1.10;;;22.20;48.30;;;;;;5017780;28;20159;-53